Etusivu
METAR-TAF:

METAR-TAF

Lentoasemat :

Trollhättan-Vänersborg, Ruotsi

Leveyspiiri: 58-19N, Pituuspiiri: 012-21E, korkeus merenpinnasta: 41 m

Tämänhetkinen sää

Tämä raportti tehtiin 23 minuuttia sitten, kello 15.20 UTC
Tuuli 6 kn idästä
Lämpötila 11°C
Kosteus 82%
Ilmanpaine 1023 hPa
Näkyvyys 10 km tai enemmän
Hajonneita pilviä 1400 ft:n korkeudessa

METAR: ESGT 211520Z 10006KT 9999 BKN014 11/08 Q1023

Aika: 17:43 (15:43 UTC)

Sääennuste

Tämä raportti tehtiin 1 tunti ja 13 minuuttia sitten, kello 14.30 UTC
Ennuste voimassa 21. päivästä klo 15 UTC - 21. päivään klo 20 UTC
Tuuli 8 kn idästä/koillisesta
Näkyvyys 10 km tai enemmän
Hajanaisia pilviä 1000 ft:n korkeudessa
Hajonneita pilviä 1500 ft:n korkeudessa
Ajoittain
21. päivästä klo 15 UTC - 21. päivään klo 20 UTC
Pilvistä 1200 ft:n korkeudessa

TAF: ESGT 211430Z 2115/2120 06008KT 9999 SCT010 BKN015 TEMPO 2115/2120 OVC012

Säähavainnot ja -ennusteet yli 4000 lentoasemalta (METAR- ja TAF-raportit).

Käytössä olevat sääasemat on merkitty karttaan keltaisilla ja punaisilla pisteillä.

Aseta hiiri pisteen päälle nähdäksesi sääaseman nimen.

Klikkaa sitten nähdäksesi säähavainnot ja -ennusteet.

Kartan vaihtaminen: klikkaa mustalla rastilla varustettuja vihreitä pisteitä, niin voit zoomata sisään; viivalla varustettua vihreää pistettä, niin voit zoomata ulos tai vihreitä nuolia, niin pääset viereisille kartoille.


METAR-TAF: